Time;durP1;ratioP1;P1;durP2;ratioP2;P2;SDS_P1;SDS_P2;PMS_P1;PMS_P2;Temp;Humidity;BMP_temperature;BMP_pressure;BME280_temperature;BME280_humidity;BME280_pressure;Samples;Min_cycle;Max_cycle;Signal;HPM_P1;HPM_P2
2021/08/26 00:00:06;;;;;;;1.70;1.20;;;22.00;63.00;;;;;;5114874;28;20214;-62
2021/08/26 00:08:00;;;;;;;1.75;1.65;;;22.00;63.10;;;;;;5114545;28;20594;-62
2021/08/26 00:10:26;;;;;;;1.20;1.00;;;22.00;63.90;;;;;;5115020;28;20165;-62
2021/08/26 00:12:52;;;;;;;1.38;1.05;;;21.90;63.90;;;;;;5115323;28;20176;-61
2021/08/26 00:15:17;;;;;;;1.00;0.95;;;21.90;63.00;;;;;;5114474;28;20177;-62
2021/08/26 00:17:44;;;;;;;1.10;1.05;;;21.90;63.00;;;;;;5114787;28;20173;-62
2021/08/26 00:20:09;;;;;;;1.95;1.48;;;21.90;63.00;;;;;;5114836;28;20173;-61
2021/08/26 00:22:35;;;;;;;0.82;0.82;;;21.90;63.00;;;;;;5113720;28;20196;-61
2021/08/26 00:25:02;;;;;;;1.70;1.17;;;21.90;63.00;;;;;;5114671;28;20229;-62
2021/08/26 00:27:27;;;;;;;1.60;1.25;;;21.90;63.00;;;;;;5114784;28;20184;-62
2021/08/26 00:29:53;;;;;;;2.42;1.10;;;21.90;63.00;;;;;;5114171;28;20173;-62
2021/08/26 00:32:18;;;;;;;1.20;1.10;;;21.90;63.00;;;;;;5114791;28;20504;-62
2021/08/26 00:34:46;;;;;;;1.17;1.10;;;21.90;63.10;;;;;;5114340;28;20173;-62
2021/08/26 00:37:12;;;;;;;1.15;1.00;;;21.90;63.00;;;;;;5113786;28;20177;-62
2021/08/26 00:39:37;;;;;;;1.00;0.95;;;21.90;63.10;;;;;;5114180;28;20176;-63
2021/08/26 00:42:04;;;;;;;0.88;0.88;;;21.90;63.10;;;;;;5114215;28;20179;-64
2021/08/26 00:44:30;;;;;;;1.83;1.00;;;21.90;63.10;;;;;;5114224;28;20304;-63
2021/08/26 00:46:55;;;;;;;2.15;0.90;;;21.90;63.10;;;;;;5114687;28;20254;-63
2021/08/26 00:49:21;;;;;;;1.48;0.77;;;21.90;63.10;;;;;;5113528;28;20264;-62
2021/08/26 00:51:46;;;;;;;2.38;1.27;;;21.90;63.10;;;;;;5114408;28;20577;-63
2021/08/26 00:54:12;;;;;;;1.42;1.10;;;21.90;63.10;;;;;;5114616;28;20189;-63
2021/08/26 00:56:38;;;;;;;1.00;0.93;;;21.90;63.10;;;;;;5113191;28;20215;-63
2021/08/26 00:59:04;;;;;;;1.30;1.00;;;21.90;63.10;;;;;;5114455;28;20209;-63
2021/08/26 01:01:59;;;;;;;1.13;0.95;;;21.90;63.10;;;;;;5095971;28;20238;-63
2021/08/26 01:04:32;;;;;;;1.30;1.00;;;21.90;63.10;;;;;;5113152;28;20248;-63
2021/08/26 01:07:09;;;;;;;1.27;0.90;;;21.80;63.10;;;;;;5096225;28;20199;-63
2021/08/26 01:09:43;;;;;;;0.80;0.80;;;21.80;63.10;;;;;;5095831;28;20181;-62
2021/08/26 01:12:12;;;;;;;1.63;1.00;;;21.90;63.20;;;;;;5113380;28;20177;-63
2021/08/26 01:14:37;;;;;;;1.27;1.15;;;21.80;63.10;;;;;;5078869;28;20311;-63
2021/08/26 01:17:03;;;;;;;1.40;1.25;;;21.80;63.10;;;;;;5095557;28;20576;-62
2021/08/26 01:19:29;;;;;;;1.73;1.20;;;21.80;63.10;;;;;;5112979;28;20169;-62
2021/08/26 01:21:54;;;;;;;0.90;0.90;;;21.80;63.20;;;;;;5113730;28;20169;-62
2021/08/26 01:24:20;;;;;;;1.00;1.00;;;21.80;63.20;;;;;;5112677;28;20228;-63
2021/08/26 01:26:47;;;;;;;1.27;1.17;;;21.80;63.20;;;;;;5078580;28;20534;-63
2021/08/26 01:29:13;;;;;;;1.50;0.85;;;21.80;63.10;;;;;;5095417;28;20185;-63
2021/08/26 01:31:44;;;;;;;1.27;1.00;;;21.80;63.20;;;;;;5093937;28;20629;-63
2021/08/26 01:34:10;;;;;;;1.30;0.90;;;21.80;63.20;;;;;;5113658;28;20534;-63
2021/08/26 01:36:35;;;;;;;1.15;1.05;;;21.80;63.20;;;;;;5113099;28;20176;-63
2021/08/26 01:39:02;;;;;;;2.13;1.00;;;21.80;63.20;;;;;;5094361;28;20253;-62
2021/08/26 01:41:48;;;;;;;2.08;1.17;;;21.80;63.20;;;;;;5113155;28;20638;-62
2021/08/26 01:44:14;;;;;;;1.40;1.10;;;21.80;63.20;;;;;;5113408;28;20247;-63
2021/08/26 01:46:40;;;;;;;1.00;0.90;;;21.80;63.20;;;;;;5112302;28;20184;-62
2021/08/26 01:49:05;;;;;;;1.00;1.00;;;21.80;63.20;;;;;;5113222;28;20173;-63
2021/08/26 01:51:32;;;;;;;1.35;1.10;;;21.80;63.20;;;;;;5112855;28;20173;-63
2021/08/26 01:53:57;;;;;;;1.33;1.23;;;21.80;63.20;;;;;;5112411;28;20597;-63
2021/08/26 01:56:23;;;;;;;3.03;1.33;;;21.80;63.20;;;;;;5112680;28;20674;-63
2021/08/26 01:58:48;;;;;;;1.33;1.15;;;21.80;63.20;;;;;;5112862;28;20704;-63
2021/08/26 02:01:14;;;;;;;1.13;1.02;;;21.80;63.30;;;;;;5112381;28;20180;-63
2021/08/26 02:03:39;;;;;;;1.15;1.05;;;21.80;63.30;;;;;;5112703;28;20254;-63
2021/08/26 02:06:05;;;;;;;1.33;1.23;;;21.80;63.30;;;;;;5112996;28;20259;-63
2021/08/26 02:08:30;;;;;;;1.40;1.05;;;21.70;63.30;;;;;;5111831;28;20272;-63
2021/08/26 02:10:56;;;;;;;1.77;0.88;;;21.80;63.40;;;;;;5112718;28;20234;-61
2021/08/26 02:13:21;;;;;;;2.15;1.38;;;21.80;63.30;;;;;;5112111;28;20211;-61
2021/08/26 02:15:47;;;;;;;1.00;0.90;;;21.80;63.30;;;;;;5112728;28;20665;-61
2021/08/26 02:18:13;;;;;;;1.38;0.90;;;21.70;63.30;;;;;;5112620;28;20173;-61
2021/08/26 02:20:38;;;;;;;2.08;1.00;;;21.80;63.40;;;;;;5111522;28;20222;-61
2021/08/26 02:23:04;;;;;;;1.38;0.90;;;21.70;63.30;;;;;;5112527;28;20298;-62
2021/08/26 02:25:29;;;;;;;2.83;1.20;;;21.70;63.30;;;;;;5111943;28;20706;-61
2021/08/26 02:27:54;;;;;;;1.45;1.05;;;21.70;63.30;;;;;;5111639;28;20176;-61
2021/08/26 02:30:20;;;;;;;1.27;1.10;;;21.70;63.30;;;;;;5112469;28;20700;-61
2021/08/26 02:32:45;;;;;;;1.10;1.00;;;21.70;63.30;;;;;;5112472;28;20311;-62
2021/08/26 02:35:11;;;;;;;1.30;1.00;;;21.70;63.30;;;;;;5111752;28;20210;-61
2021/08/26 02:37:37;;;;;;;1.35;1.08;;;21.70;63.30;;;;;;5111973;28;20196;-61
2021/08/26 02:40:02;;;;;;;0.90;0.90;;;21.70;63.30;;;;;;5112010;28;20626;-61
2021/08/26 02:42:29;;;;;;;1.20;1.02;;;21.70;63.30;;;;;;5110283;28;20195;-61
2021/08/26 02:44:55;;;;;;;1.17;1.05;;;21.70;63.40;;;;;;5112196;28;20547;-62
2021/08/26 02:47:20;;;;;;;1.70;1.33;;;21.70;63.30;;;;;;5111991;28;20210;-61
2021/08/26 02:49:46;;;;;;;1.75;1.20;;;21.70;63.30;;;;;;5111489;28;20649;-61
2021/08/26 02:52:11;;;;;;;1.25;0.98;;;21.70;63.40;;;;;;5111908;28;20215;-61
2021/08/26 02:54:37;;;;;;;1.20;1.10;;;21.70;63.30;;;;;;5111716;28;20181;-61
2021/08/26 02:57:03;;;;;;;1.08;0.98;;;21.70;63.30;;;;;;5111306;28;20222;-61
2021/08/26 02:59:28;;;;;;;0.80;0.80;;;21.70;63.40;;;;;;5111689;28;20212;-61
2021/08/26 03:01:54;;;;;;;1.88;0.90;;;21.70;63.40;;;;;;5112137;28;20269;-62
2021/08/26 03:04:19;;;;;;;2.33;1.30;;;21.70;63.40;;;;;;5111291;28;20292;-61
2021/08/26 03:06:45;;;;;;;1.70;1.08;;;21.70;63.40;;;;;;5111786;28;20312;-61
2021/08/26 03:09:10;;;;;;;1.23;1.13;;;21.70;63.40;;;;;;5111925;28;20642;-61
2021/08/26 03:11:36;;;;;;;1.33;1.05;;;21.70;63.40;;;;;;5111062;28;20173;-60
2021/08/26 03:14:01;;;;;;;1.15;1.05;;;21.60;63.40;;;;;;5112007;28;20251;-61
2021/08/26 03:16:27;;;;;;;1.20;0.95;;;21.70;63.40;;;;;;5111551;28;20177;-61
2021/08/26 03:18:52;;;;;;;1.33;1.08;;;21.60;63.40;;;;;;5111272;28;20284;-61
2021/08/26 03:21:18;;;;;;;1.17;1.08;;;21.60;63.60;;;;;;5111845;28;20173;-61
2021/08/26 03:23:43;;;;;;;1.98;1.20;;;21.60;63.40;;;;;;5110763;28;20201;-61
2021/08/26 03:26:09;;;;;;;2.28;1.10;;;21.70;63.40;;;;;;5111582;28;20651;-61
2021/08/26 03:28:34;;;;;;;1.30;1.00;;;21.60;63.40;;;;;;5111402;28;20274;-61
2021/08/26 03:31:00;;;;;;;1.83;1.08;;;21.60;63.40;;;;;;5110845;28;20600;-61
2021/08/26 03:33:25;;;;;;;2.08;0.95;;;21.60;63.40;;;;;;5111429;28;20170;-62
2021/08/26 03:35:51;;;;;;;2.13;1.17;;;21.60;63.50;;;;;;5111597;28;20216;-62
2021/08/26 03:38:16;;;;;;;1.60;1.10;;;21.60;63.40;;;;;;5110758;28;20173;-62
2021/08/26 03:40:42;;;;;;;1.10;1.00;;;21.60;63.40;;;;;;5111546;28;20184;-61
2021/08/26 03:43:07;;;;;;;3.75;1.15;;;21.60;63.40;;;;;;5111682;28;20606;-61
2021/08/26 03:45:33;;;;;;;1.60;1.20;;;21.60;63.40;;;;;;5110599;28;20215;-61
2021/08/26 03:47:58;;;;;;;2.35;1.35;;;21.60;63.40;;;;;;5110893;28;20294;-61
2021/08/26 03:50:24;;;;;;;1.50;1.20;;;21.60;63.40;;;;;;5111071;28;20215;-61
2021/08/26 03:52:50;;;;;;;0.95;0.90;;;21.60;63.50;;;;;;5110708;28;20188;-61
2021/08/26 03:55:15;;;;;;;1.85;1.45;;;21.60;63.50;;;;;;5114906;28;20674;-61
2021/08/26 03:57:40;;;;;;;1.45;1.27;;;21.60;63.50;;;;;;5115107;28;20188;-61
2021/08/26 04:00:07;;;;;;;2.95;1.08;;;21.60;64.30;;;;;;5114678;28;20169;-61
2021/08/26 04:02:32;;;;;;;1.77;1.00;;;21.60;63.50;;;;;;5114665;28;20636;-61
2021/08/26 04:05:01;;;;;;;1.40;1.30;;;21.60;63.50;;;;;;5096851;28;20253;-62
2021/08/26 04:07:30;;;;;;;1.27;1.17;;;21.60;63.50;;;;;;5113949;28;20176;-61
2021/08/26 04:09:56;;;;;;;1.02;0.80;;;21.60;63.50;;;;;;5115132;28;20184;-62
2021/08/26 04:12:21;;;;;;;1.45;1.27;;;21.60;63.50;;;;;;5114732;28;20165;-61
2021/08/26 04:14:47;;;;;;;1.38;1.27;;;21.60;63.50;;;;;;5114241;28;20185;-61
2021/08/26 04:17:12;;;;;;;1.52;1.27;;;21.50;63.40;;;;;;5114860;28;20626;-61
2021/08/26 04:19:38;;;;;;;1.17;1.08;;;21.50;63.50;;;;;;5114710;28;20188;-61
2021/08/26 04:22:03;;;;;;;2.03;1.58;;;21.60;63.50;;;;;;5113997;28;20188;-62
2021/08/26 04:24:29;;;;;;;1.52;1.10;;;21.50;63.40;;;;;;5114050;28;20332;-62
2021/08/26 04:26:54;;;;;;;1.83;1.10;;;21.50;63.50;;;;;;5114757;28;20646;-62
2021/08/26 04:29:20;;;;;;;2.92;1.20;;;21.50;63.50;;;;;;5113636;28;20177;-62
2021/08/26 04:31:45;;;;;;;2.22;1.13;;;21.50;63.50;;;;;;5114685;28;20169;-62
2021/08/26 04:34:11;;;;;;;1.25;0.93;;;21.50;63.50;;;;;;5114111;28;20234;-63
2021/08/26 04:36:36;;;;;;;1.45;1.00;;;21.50;63.50;;;;;;5114100;28;20177;-62
2021/08/26 04:39:02;;;;;;;2.35;1.20;;;21.50;63.50;;;;;;5114511;28;20658;-62
2021/08/26 04:41:27;;;;;;;1.48;1.10;;;21.50;63.50;;;;;;5113597;28;20250;-62
2021/08/26 04:43:53;;;;;;;1.45;1.35;;;21.50;63.50;;;;;;5114284;28;20601;-62
2021/08/26 04:46:18;;;;;;;2.42;1.20;;;21.50;63.50;;;;;;5114506;28;20716;-62
2021/08/26 04:48:44;;;;;;;2.00;1.45;;;21.50;63.50;;;;;;5113476;28;20524;-61
2021/08/26 04:51:09;;;;;;;1.50;1.30;;;21.50;63.50;;;;;;5114292;28;20180;-62
2021/08/26 04:53:35;;;;;;;1.95;1.40;;;21.50;63.50;;;;;;5114038;28;20173;-62
2021/08/26 04:56:00;;;;;;;1.77;1.35;;;21.50;63.50;;;;;;5113577;28;20569;-62
2021/08/26 04:58:26;;;;;;;2.03;1.40;;;21.50;63.50;;;;;;5114065;28;20209;-62
2021/08/26 05:00:51;;;;;;;1.50;1.40;;;21.50;63.50;;;;;;5114307;28;20173;-62
2021/08/26 05:03:17;;;;;;;2.40;1.60;;;21.50;63.50;;;;;;5113310;28;20587;-61
2021/08/26 05:05:42;;;;;;;1.48;1.20;;;21.50;63.60;;;;;;5112810;28;20177;-62
2021/08/26 05:08:08;;;;;;;2.03;1.00;;;21.50;63.50;;;;;;5114120;28;20252;-61
2021/08/26 05:10:33;;;;;;;1.48;1.17;;;21.50;63.50;;;;;;5112855;28;20237;-62
2021/08/26 05:12:59;;;;;;;1.73;1.30;;;21.50;63.50;;;;;;5114071;28;20631;-61
2021/08/26 05:15:24;;;;;;;1.55;1.15;;;21.50;63.50;;;;;;5113540;28;20705;-61
2021/08/26 05:17:50;;;;;;;1.63;1.30;;;21.50;63.60;;;;;;5113086;28;20177;-61
2021/08/26 05:20:15;;;;;;;2.13;1.25;;;21.40;63.50;;;;;;5113751;28;20479;-61
2021/08/26 05:22:41;;;;;;;1.25;1.08;;;21.50;63.60;;;;;;5112589;28;20325;-60
2021/08/26 05:25:07;;;;;;;2.72;1.48;;;21.40;63.50;;;;;;5112817;28;20235;-61
2021/08/26 05:27:33;;;;;;;1.90;1.45;;;21.40;63.50;;;;;;5113561;28;20242;-60
2021/08/26 05:29:58;;;;;;;1.50;1.40;;;21.50;63.50;;;;;;5113455;28;20227;-61
2021/08/26 05:32:24;;;;;;;1.77;1.33;;;21.40;63.50;;;;;;5112470;28;20629;-61
2021/08/26 05:34:49;;;;;;;2.30;1.20;;;21.50;63.50;;;;;;5113494;28;20264;-61
2021/08/26 05:37:15;;;;;;;1.52;1.30;;;21.50;63.50;;;;;;5113223;28;20704;-61
2021/08/26 05:39:40;;;;;;;1.15;0.90;;;21.50;63.50;;;;;;5112223;28;20635;-61
2021/08/26 05:42:06;;;;;;;2.22;1.38;;;21.50;63.50;;;;;;5113341;28;20169;-61
2021/08/26 05:44:31;;;;;;;1.80;1.17;;;21.50;63.50;;;;;;5112114;28;20248;-61
2021/08/26 05:46:57;;;;;;;1.55;1.30;;;21.40;63.40;;;;;;5113291;28;20169;-61
2021/08/26 05:49:22;;;;;;;1.80;1.27;;;21.50;63.50;;;;;;5112571;28;20184;-61
2021/08/26 05:51:48;;;;;;;2.28;1.42;;;21.50;63.50;;;;;;5112217;28;20590;-61
2021/08/26 05:54:13;;;;;;;2.25;1.40;;;21.50;63.50;;;;;;5112950;28;20268;-61
2021/08/26 05:56:39;;;;;;;1.45;1.20;;;21.50;63.50;;;;;;5112322;28;20232;-61
2021/08/26 05:59:04;;;;;;;2.75;1.65;;;21.50;63.50;;;;;;5112277;28;20204;-60
2021/08/26 06:01:30;;;;;;;2.67;1.27;;;21.50;63.40;;;;;;5112476;28;20169;-61
2021/08/26 06:03:56;;;;;;;3.08;1.75;;;21.50;63.40;;;;;;5112542;28;20583;-62
2021/08/26 06:06:21;;;;;;;2.17;1.25;;;21.50;63.50;;;;;;5111656;28;20184;-62
2021/08/26 06:08:47;;;;;;;1.40;1.30;;;21.50;63.50;;;;;;5112713;28;20165;-62
2021/08/26 06:11:13;;;;;;;3.40;1.45;;;21.50;63.40;;;;;;5112405;28;20177;-61
2021/08/26 06:13:38;;;;;;;1.67;1.38;;;21.50;63.40;;;;;;5111587;28;20256;-61
2021/08/26 06:16:04;;;;;;;1.92;1.40;;;21.50;63.40;;;;;;5112297;28;20590;-61
2021/08/26 06:18:30;;;;;;;2.10;1.50;;;21.50;63.40;;;;;;5111924;28;20588;-61
2021/08/26 06:20:55;;;;;;;2.47;1.45;;;21.50;63.40;;;;;;5111680;28;20177;-62
2021/08/26 06:23:21;;;;;;;2.28;1.40;;;21.50;63.40;;;;;;5112071;28;20700;-61
2021/08/26 06:25:46;;;;;;;1.58;1.27;;;21.50;63.40;;;;;;5112164;28;20229;-60
2021/08/26 06:28:12;;;;;;;2.17;1.33;;;21.50;63.30;;;;;;5111677;28;20170;-61
2021/08/26 06:30:37;;;;;;;2.03;1.15;;;21.50;63.30;;;;;;5111763;28;20181;-61
2021/08/26 06:33:03;;;;;;;2.72;1.42;;;21.50;63.30;;;;;;5112210;28;20176;-61
2021/08/26 06:35:29;;;;;;;1.98;1.50;;;21.50;63.30;;;;;;5110913;28;20169;-61
2021/08/26 06:37:54;;;;;;;1.88;1.42;;;21.50;63.30;;;;;;5112042;28;20534;-62
2021/08/26 06:40:20;;;;;;;1.60;1.30;;;21.50;63.40;;;;;;5111848;28;20169;-62
2021/08/26 06:42:45;;;;;;;3.72;1.50;;;21.50;63.40;;;;;;5111359;28;20188;-62
2021/08/26 06:45:11;;;;;;;2.88;1.35;;;21.50;63.40;;;;;;5111838;28;20221;-62
2021/08/26 06:47:37;;;;;;;1.73;1.60;;;21.50;63.40;;;;;;5111737;28;20176;-60
2021/08/26 06:50:03;;;;;;;2.30;1.48;;;21.50;63.40;;;;;;5111031;28;20192;-62
2021/08/26 06:52:28;;;;;;;1.40;1.30;;;21.50;63.40;;;;;;5111826;28;20174;-60
2021/08/26 06:54:54;;;;;;;2.85;1.40;;;21.50;63.40;;;;;;5111196;28;20200;-61
2021/08/26 06:57:19;;;;;;;1.45;1.33;;;21.50;63.40;;;;;;5111691;28;20165;-61
2021/08/26 06:59:45;;;;;;;1.52;1.42;;;21.50;63.40;;;;;;5111827;28;20173;-63
2021/08/26 07:02:11;;;;;;;1.75;1.30;;;21.50;63.40;;;;;;5111115;28;20234;-62
2021/08/26 07:04:36;;;;;;;2.45;1.50;;;21.60;63.40;;;;;;5111507;28;20200;-59
2021/08/26 07:07:02;;;;;;;6.50;1.55;;;21.60;63.30;;;;;;5112076;28;20184;-59
2021/08/26 07:09:27;;;;;;;1.95;1.30;;;21.70;63.50;;;;;;5110845;28;20183;-59
2021/08/26 07:11:53;;;;;;;4.68;1.65;;;21.70;63.40;;;;;;5112062;28;20169;-59
2021/08/26 07:14:19;;;;;;;2.47;1.40;;;21.70;63.60;;;;;;5111662;28;20172;-60
2021/08/26 07:16:44;;;;;;;3.25;1.20;;;21.80;63.90;;;;;;5110883;28;20506;-61
2021/08/26 07:19:10;;;;;;;3.80;1.52;;;21.80;63.70;;;;;;5111820;28;20202;-62
2021/08/26 07:21:35;;;;;;;2.53;1.08;;;21.80;63.50;;;;;;5111384;28;20173;-62
2021/08/26 07:24:01;;;;;;;2.63;1.40;;;21.80;63.60;;;;;;5111041;28;20197;-62
2021/08/26 07:26:26;;;;;;;1.45;1.30;;;21.70;63.60;;;;;;5111725;28;20193;-62
2021/08/26 07:28:54;;;;;;;3.88;2.05;;;21.70;63.70;;;;;;5112925;28;20169;-65
2021/08/26 07:31:20;;;;;;;2.67;1.70;;;21.70;64.00;;;;;;5114935;28;20230;-64
2021/08/26 07:33:46;;;;;;;3.22;1.33;;;21.80;64.20;;;;;;5115700;28;20181;-63
2021/08/26 07:36:11;;;;;;;3.97;1.55;;;21.80;63.60;;;;;;5115491;28;20177;-64
2021/08/26 07:38:36;;;;;;;4.43;1.58;;;21.80;63.50;;;;;;5114598;28;20169;-65
2021/08/26 07:41:02;;;;;;;3.15;1.30;;;21.80;63.50;;;;;;5115404;28;20530;-64
2021/08/26 07:43:31;;;;;;;8.80;1.60;;;21.80;63.50;;;;;;5115071;28;20173;-62
2021/08/26 07:45:57;;;;;;;4.65;1.77;;;21.90;63.70;;;;;;5114804;28;20184;-60
2021/08/26 07:48:23;;;;;;;2.60;1.42;;;21.80;63.70;;;;;;5114892;28;20627;-60
2021/08/26 07:50:49;;;;;;;3.65;1.42;;;21.90;63.70;;;;;;5115677;28;20234;-60
2021/08/26 07:53:15;;;;;;;4.60;1.50;;;21.90;63.80;;;;;;5114879;28;20170;-59
2021/08/26 07:55:41;;;;;;;7.55;1.83;;;21.90;64.10;;;;;;5115136;28;20185;-60
2021/08/26 07:58:06;;;;;;;4.15;1.92;;;21.80;63.90;;;;;;5114682;28;20354;-61
2021/08/26 08:00:32;;;;;;;2.38;1.40;;;21.80;63.90;;;;;;5114970;28;20638;-60
2021/08/26 08:02:57;;;;;;;5.97;1.83;;;21.80;64.00;;;;;;5115122;28;20165;-60
2021/08/26 08:05:23;;;;;;;4.85;1.52;;;21.80;64.00;;;;;;5114269;28;20205;-60
2021/08/26 08:07:48;;;;;;;4.28;1.50;;;21.70;64.00;;;;;;5114955;28;20224;-61
2021/08/26 08:10:14;;;;;;;3.78;1.70;;;21.70;64.00;;;;;;5115104;28;20620;-60
2021/08/26 08:12:40;;;;;;;3.50;1.80;;;21.80;64.10;;;;;;5115020;27;20181;-59
2021/08/26 08:15:06;;;;;;;5.25;1.60;;;21.80;63.70;;;;;;5132686;27;20225;-59
2021/08/26 08:17:31;;;;;;;3.40;1.30;;;21.90;63.80;;;;;;5114444;28;20255;-59
2021/08/26 08:19:57;;;;;;;2.47;1.30;;;21.90;63.70;;;;;;5121737;27;20232;-59
2021/08/26 08:22:22;;;;;;;3.13;1.63;;;21.90;63.70;;;;;;5135388;27;20175;-59
2021/08/26 08:24:48;;;;;;;4.15;1.40;;;22.00;63.40;;;;;;5135238;27;20235;-59
2021/08/26 08:27:13;;;;;;;2.85;1.35;;;22.00;63.30;;;;;;5134761;27;20169;-59
2021/08/26 08:29:39;;;;;;;2.85;1.60;;;22.00;63.40;;;;;;5117350;27;20232;-59
2021/08/26 08:32:05;;;;;;;5.57;1.80;;;22.00;63.50;;;;;;5114798;28;20201;-60
2021/08/26 08:34:30;;;;;;;2.90;1.67;;;22.00;63.50;;;;;;5117053;27;20205;-60
2021/08/26 08:36:57;;;;;;;2.97;1.60;;;22.00;63.40;;;;;;5126311;27;20611;-61
2021/08/26 08:39:22;;;;;;;3.17;1.60;;;22.00;63.50;;;;;;5122872;27;20646;-60
2021/08/26 08:41:48;;;;;;;3.42;1.55;;;22.00;63.60;;;;;;5114244;28;20177;-61
2021/08/26 08:44:13;;;;;;;2.45;1.42;;;22.00;63.60;;;;;;5113131;27;20730;-60
2021/08/26 08:46:39;;;;;;;3.30;1.30;;;22.00;63.60;;;;;;5117474;27;20176;-60
2021/08/26 08:49:04;;;;;;;4.20;1.73;;;22.00;63.60;;;;;;5095603;28;20176;-60
2021/08/26 08:51:30;;;;;;;3.60;1.63;;;22.00;63.60;;;;;;5120180;27;20191;-60
2021/08/26 08:53:55;;;;;;;3.58;1.40;;;22.00;63.60;;;;;;5116406;27;20243;-60
2021/08/26 08:56:26;;;;;;;2.15;1.63;;;22.00;63.60;;;;;;5115804;27;20217;-60
2021/08/26 08:58:53;;;;;;;3.97;1.65;;;22.00;63.60;;;;;;5134836;27;20172;-60
2021/08/26 09:01:18;;;;;;;2.72;1.52;;;22.00;63.60;;;;;;5099088;27;20215;-60
2021/08/26 09:03:44;;;;;;;3.28;1.52;;;22.00;63.50;;;;;;5134439;27;20223;-60
2021/08/26 09:06:09;;;;;;;2.03;1.50;;;22.00;63.50;;;;;;5125961;27;20172;-60
2021/08/26 09:08:35;;;;;;;4.10;1.73;;;22.00;63.50;;;;;;5127249;27;20632;-60
2021/08/26 09:11:14;;;;;;;1.98;1.20;;;22.10;63.40;;;;;;5114636;27;20222;-60
2021/08/26 09:13:40;;;;;;;4.10;1.73;;;22.20;63.10;;;;;;5122400;27;20177;-59
2021/08/26 09:16:06;;;;;;;1.83;1.30;;;22.20;63.20;;;;;;5113150;28;20283;-59
2021/08/26 09:18:31;;;;;;;3.10;1.40;;;22.20;63.30;;;;;;5128493;27;20195;-60
2021/08/26 09:20:59;;;;;;;3.22;1.60;;;22.10;63.30;;;;;;5131611;27;20176;-59
2021/08/26 09:23:34;;;;;;;3.28;1.30;;;22.10;63.40;;;;;;5133188;27;20607;-60
2021/08/26 09:26:20;;;;;;;4.10;1.30;;;22.10;63.40;;;;;;5134323;27;20219;-60
2021/08/26 09:28:45;;;;;;;3.42;1.60;;;22.10;63.40;;;;;;5134254;27;20177;-60
2021/08/26 09:31:22;;;;;;;3.80;1.45;;;22.10;63.50;;;;;;5133728;27;20172;-60
2021/08/26 09:33:51;;;;;;;2.13;1.50;;;22.10;63.60;;;;;;5134386;27;20183;-61
2021/08/26 09:36:24;;;;;;;4.03;1.65;;;22.10;63.60;;;;;;5133983;27;20205;-61
2021/08/26 09:38:51;;;;;;;3.70;1.60;;;22.10;63.50;;;;;;5133231;27;20168;-60
2021/08/26 09:41:22;;;;;;;5.53;1.80;;;22.10;63.50;;;;;;5134273;27;20221;-61
2021/08/26 09:43:48;;;;;;;2.90;1.60;;;22.10;63.40;;;;;;5099303;28;20205;-61
2021/08/26 09:46:27;;;;;;;4.45;1.75;;;22.10;63.40;;;;;;5095257;28;20608;-60
2021/08/26 09:49:10;;;;;;;3.35;1.73;;;22.10;63.40;;;;;;5096934;28;20610;-60
2021/08/26 09:51:35;;;;;;;6.35;1.75;;;22.10;63.40;;;;;;5111989;28;20188;-61
2021/08/26 09:54:01;;;;;;;6.13;1.85;;;22.10;63.40;;;;;;5113421;28;20584;-61
2021/08/26 09:56:40;;;;;;;2.83;1.40;;;22.10;63.40;;;;;;5112859;28;20177;-61
2021/08/26 09:59:06;;;;;;;3.40;1.55;;;22.10;63.30;;;;;;5112526;28;20181;-61
2021/08/26 10:01:34;;;;;;;4.40;1.60;;;22.10;63.20;;;;;;5112726;28;20165;-61
2021/08/26 10:04:00;;;;;;;6.95;1.88;;;22.10;63.20;;;;;;5113088;28;20209;-62
2021/08/26 10:06:25;;;;;;;2.38;1.35;;;22.10;63.20;;;;;;5112081;28;20196;-61
2021/08/26 10:08:51;;;;;;;5.05;1.60;;;22.10;63.30;;;;;;5094332;28;20612;-61
2021/08/26 10:11:18;;;;;;;4.40;1.65;;;22.00;63.40;;;;;;5113070;28;20204;-61
2021/08/26 10:13:44;;;;;;;4.22;1.73;;;22.00;63.50;;;;;;5111797;28;20188;-61
2021/08/26 10:16:09;;;;;;;3.15;1.42;;;22.00;63.40;;;;;;5112701;28;20165;-61
2021/08/26 10:18:36;;;;;;;3.33;1.30;;;22.10;63.40;;;;;;5093886;28;20561;-61
2021/08/26 10:21:01;;;;;;;4.18;1.40;;;22.10;63.30;;;;;;5112523;27;20175;-61
2021/08/26 10:23:27;;;;;;;4.63;1.65;;;22.10;63.20;;;;;;5132602;27;20177;-62
2021/08/26 10:25:53;;;;;;;5.43;1.50;;;22.10;63.20;;;;;;5113784;27;20310;-63
2021/08/26 10:28:19;;;;;;;2.33;1.33;;;22.20;63.30;;;;;;5114738;27;20546;-65
2021/08/26 10:30:44;;;;;;;2.35;1.52;;;22.20;63.10;;;;;;5114544;27;20164;-61
2021/08/26 10:33:12;;;;;;;6.18;1.80;;;22.30;62.90;;;;;;5132337;27;20626;-61
2021/08/26 10:35:53;;;;;;;4.78;1.90;;;22.40;62.80;;;;;;5132795;27;20656;-61
2021/08/26 10:38:29;;;;;;;5.13;1.70;;;22.40;62.70;;;;;;5133145;27;20252;-61
2021/08/26 10:41:17;;;;;;;3.33;1.42;;;22.50;62.70;;;;;;5132366;27;20175;-62
2021/08/26 10:43:42;;;;;;;3.55;1.80;;;22.50;62.80;;;;;;5117605;27;20205;-61
2021/08/26 10:46:09;;;;;;;5.53;1.55;;;22.50;62.70;;;;;;5112529;28;20250;-61
2021/08/26 10:48:35;;;;;;;4.90;1.80;;;22.50;62.90;;;;;;5111319;28;20181;-60
2021/08/26 10:51:17;;;;;;;6.53;1.83;;;22.50;62.70;;;;;;5112473;28;20169;-61
2021/08/26 10:53:45;;;;;;;3.13;1.70;;;22.50;62.70;;;;;;5112051;28;20161;-60
2021/08/26 10:56:25;;;;;;;3.95;1.70;;;22.60;62.70;;;;;;5111667;28;20199;-60
2021/08/26 10:58:58;;;;;;;2.80;1.33;;;22.60;62.70;;;;;;5112489;28;20246;-61
2021/08/26 11:01:34;;;;;;;3.95;1.50;;;22.50;62.60;;;;;;5111229;28;20222;-61
2021/08/26 11:04:01;;;;;;;3.45;1.50;;;22.50;62.60;;;;;;5111250;28;20208;-61
2021/08/26 11:06:29;;;;;;;4.95;2.35;;;22.50;62.60;;;;;;5112111;28;20189;-61
2021/08/26 11:08:56;;;;;;;4.50;1.40;;;22.50;62.70;;;;;;5111541;28;20173;-60
2021/08/26 11:11:24;;;;;;;6.70;1.92;;;22.50;62.70;;;;;;5111973;28;20230;-60
2021/08/26 11:13:51;;;;;;;3.03;1.60;;;22.50;62.70;;;;;;5112268;28;20169;-61
2021/08/26 11:16:25;;;;;;;4.10;1.80;;;22.50;62.70;;;;;;5111189;28;20666;-60
2021/08/26 11:18:55;;;;;;;4.47;2.05;;;22.50;62.80;;;;;;5112594;28;20165;-60
2021/08/26 11:21:43;;;;;;;3.65;1.73;;;22.50;62.80;;;;;;5132043;28;20293;-60
2021/08/26 11:24:30;;;;;;;3.03;1.77;;;22.50;62.80;;;;;;5131564;28;20224;-60
2021/08/26 11:26:59;;;;;;;3.40;1.77;;;22.50;62.80;;;;;;5118473;28;20172;-61
2021/08/26 11:29:25;;;;;;;3.42;1.60;;;22.50;62.70;;;;;;5131323;28;20677;-60
2021/08/26 11:31:53;;;;;;;4.10;1.90;;;22.50;62.80;;;;;;5132721;28;20169;-60
2021/08/26 11:34:25;;;;;;;3.38;1.63;;;22.50;62.80;;;;;;5132607;28;20176;-61
2021/08/26 11:37:27;;;;;;;2.25;1.50;;;22.50;62.90;;;;;;5131505;28;20691;-60
2021/08/26 11:40:12;;;;;;;2.17;1.63;;;22.50;62.90;;;;;;5128929;28;20221;-60
2021/08/26 11:42:39;;;;;;;4.13;1.70;;;22.40;62.90;;;;;;5126605;28;20196;-59
2021/08/26 11:45:10;;;;;;;3.40;1.45;;;22.60;62.80;;;;;;5111186;28;20209;-60
2021/08/26 11:47:37;;;;;;;4.85;2.00;;;22.60;62.60;;;;;;5111676;28;20173;-61
2021/08/26 11:50:22;;;;;;;4.03;1.60;;;22.70;62.50;;;;;;5093677;28;20219;-61
2021/08/26 11:52:53;;;;;;;4.68;2.00;;;22.70;62.10;;;;;;5111739;28;20564;-61
2021/08/26 11:55:20;;;;;;;5.55;1.80;;;22.70;62.40;;;;;;5111872;28;20249;-61
2021/08/26 11:57:45;;;;;;;6.05;2.45;;;22.60;62.40;;;;;;5110932;28;20643;-61
2021/08/26 12:00:13;;;;;;;3.58;1.83;;;22.70;62.50;;;;;;5111706;28;20219;-60
2021/08/26 12:02:40;;;;;;;4.53;1.55;;;22.80;62.30;;;;;;5111435;28;20264;-61
2021/08/26 12:05:11;;;;;;;2.55;2.08;;;22.60;62.30;;;;;;5111224;28;20239;-61
2021/08/26 12:07:38;;;;;;;4.00;2.00;;;22.60;62.70;;;;;;5111602;28;20173;-61
2021/08/26 12:10:25;;;;;;;3.85;2.15;;;22.50;62.80;;;;;;5112036;28;20173;-60
2021/08/26 12:13:09;;;;;;;4.60;2.03;;;22.50;62.90;;;;;;5110990;28;20173;-61
2021/08/26 12:15:48;;;;;;;3.60;2.13;;;22.40;63.00;;;;;;5113700;28;20248;-61
2021/08/26 12:18:18;;;;;;;3.72;2.05;;;22.40;63.10;;;;;;5115125;28;20619;-60
2021/08/26 12:20:48;;;;;;;4.05;2.00;;;22.40;63.10;;;;;;5131597;27;20172;-60
2021/08/26 12:23:25;;;;;;;4.25;2.13;;;22.50;62.80;;;;;;5135891;27;20172;-60
2021/08/26 12:26:06;;;;;;;4.18;2.22;;;22.60;62.60;;;;;;5134861;27;20228;-59
2021/08/26 12:28:36;;;;;;;3.15;2.13;;;22.70;62.30;;;;;;5135663;27;20176;-60
2021/08/26 12:31:06;;;;;;;3.88;2.40;;;22.80;62.10;;;;;;5117563;27;20177;-60
2021/08/26 12:33:32;;;;;;;4.03;1.70;;;22.80;61.80;;;;;;5135017;27;20204;-61
2021/08/26 12:35:58;;;;;;;3.53;2.20;;;22.90;61.60;;;;;;5135418;27;20180;-61
2021/08/26 12:38:40;;;;;;;3.70;2.30;;;23.00;61.50;;;;;;5135475;27;20176;-61
2021/08/26 12:41:13;;;;;;;3.72;2.05;;;22.90;61.40;;;;;;5135305;27;20171;-60
2021/08/26 12:43:46;;;;;;;3.97;2.15;;;22.90;61.50;;;;;;5120991;27;20273;-60
2021/08/26 12:46:14;;;;;;;4.43;2.35;;;22.90;61.70;;;;;;5114910;28;20187;-60
2021/08/26 12:48:41;;;;;;;4.90;2.25;;;22.80;61.70;;;;;;5113801;28;20206;-60
2021/08/26 12:51:10;;;;;;;4.72;2.20;;;22.80;61.80;;;;;;5114969;28;20230;-60
2021/08/26 12:53:36;;;;;;;4.43;2.50;;;22.80;61.80;;;;;;5113785;28;20185;-60